Portada
METAR-TAF:

METAR-TAF

Aeropuertos :

Saint Louis, Senegal

latitud: 16-03N, longitud: 016-27W, altitud: 4 m

Observación

El informe se hizo hace 45 minutos, a las 22:00 UTC
Viento 6 kt del noroeste, variando entre oeste y norte
Temperatura 26°C
Humedad 84%
Presión 1011 hPa
Visibilidad 10 km o más
sin nubes por debajo de 1500 m y sin presencia de cumulonimbus.

METAR: GOSS 212200Z 32006KT 270V010 CAVOK 26/23 Q1011

Hora: 22:45 (22:45 UTC)

Pronóstico

El informe se hizo hace 5 horas y 45 minutos, a las 17:00 UTC
Pronóstico válido del 21 a las 18 UTC al 22 a las 18 UTC
Viento 8 kt del oeste-noroeste
Visibilidad: 8000 m

TAF: GOSS 211700Z 2118/2218 30008KT 8000 NSC

Observaciones y pronósticos meteorológicos de más de 4000 aeropuertos (mensajes METAR y TAF).

Los puntos amarillos y rojos representan las estaciones disponibles.

Ponga el ratón en el punto deseado para ver el nombre de la estación.

Haga clic para ver las observaciones y los pronósticos meteorológicos.

Para cambiar el mapa : haga clic en los botones verdes con una cruz de color negro para hacer un zoom, en el botón verde con un guión para alejar o en las flechas verdes para mapas adyacentes.


METAR-TAF: